Time;durP1;ratioP1;P1;durP2;ratioP2;P2;SDS_P1;SDS_P2;PMS_P1;PMS_P2;Temp;Humidity;BMP_temperature;BMP_pressure;BME280_temperature;BME280_humidity;BME280_pressure;Samples;Min_cycle;Max_cycle;Signal;HPM_P1;HPM_P2
2022/03/20 00:00:39;;;;;;;25.10;10.55;;;;;;;;;;5071500;28;20024;-75
2022/03/20 00:03:09;;;;;;;20.95;10.20;;;;;;;;;;5071530;28;20029;-75
2022/03/20 00:05:38;;;;;;;19.48;10.00;;;;;;;;;;5071320;28;20020;-74
2022/03/20 00:08:12;;;;;;;16.55;9.80;;;;;;;;;;5071211;28;20032;-74
2022/03/20 00:10:42;;;;;;;18.95;10.10;;;;;;;;;;5065594;28;20401;-75
2022/03/20 00:13:09;;;;;;;25.15;10.88;;;;;;;;;;5071523;28;20039;-75
2022/03/20 00:15:36;;;;;;;19.08;10.20;;;;;;;;;;5071438;28;20035;-75
2022/03/20 00:18:03;;;;;;;20.48;9.82;;;;;;;;;;5069283;28;20401;-75
2022/03/20 00:20:33;;;;;;;15.80;9.80;;;;;;;;;;5071335;28;20016;-75
2022/03/20 00:23:00;;;;;;;21.63;10.05;;;;;;;;;;5071415;28;20029;-75
2022/03/20 00:25:27;;;;;;;21.70;10.77;;;;;;;;;;5071408;28;20026;-74
2022/03/20 00:27:53;;;;;;;18.90;10.05;;;;;;;;;;5053266;28;20493;-74
2022/03/20 00:30:19;;;;;;;26.13;10.10;;;;;;;;;;5072218;28;20035;-74
2022/03/20 00:32:46;;;;;;;22.73;10.25;;;;;;;;;;5070637;28;20027;-74
2022/03/20 00:35:12;;;;;;;20.15;9.48;;;;;;;;;;5071137;28;20008;-75
2022/03/20 00:37:39;;;;;;;17.98;9.32;;;;;;;;;;5070813;28;20405;-75
2022/03/20 00:40:05;;;;;;;18.35;10.05;;;;;;;;;;5071069;28;20025;-75
2022/03/20 00:42:32;;;;;;;17.20;9.15;;;;;;;;;;5071147;28;20020;-75
2022/03/20 00:44:58;;;;;;;19.63;10.27;;;;;;;;;;5071601;28;20028;-75
2022/03/20 00:47:25;;;;;;;22.60;10.98;;;;;;;;;;5070475;28;20044;-75
2022/03/20 00:49:51;;;;;;;21.65;11.05;;;;;;;;;;5071131;28;20021;-75
2022/03/20 00:52:17;;;;;;;25.27;10.27;;;;;;;;;;5070996;28;20021;-75
2022/03/20 00:54:44;;;;;;;20.80;11.20;;;;;;;;;;5070673;28;20028;-75
2022/03/20 00:57:10;;;;;;;24.75;12.52;;;;;;;;;;5071896;28;20046;-75
2022/03/20 00:59:36;;;;;;;34.80;15.98;;;;;;;;;;5070849;28;20013;-75
2022/03/20 01:02:04;;;;;;;30.67;14.60;;;;;;;;;;5070689;28;20024;-75
2022/03/20 01:04:31;;;;;;;28.88;15.00;;;;;;;;;;5070823;28;20089;-75
2022/03/20 01:07:00;;;;;;;32.17;14.57;;;;;;;;;;5070915;28;20041;-74
2022/03/20 01:09:26;;;;;;;41.13;17.60;;;;;;;;;;5071198;28;20029;-75
2022/03/20 01:11:53;;;;;;;38.33;16.88;;;;;;;;;;5071326;28;20027;-74
2022/03/20 01:14:19;;;;;;;41.13;17.73;;;;;;;;;;5057071;28;20025;-75
2022/03/20 01:16:46;;;;;;;33.20;15.68;;;;;;;;;;5074451;28;20025;-75
2022/03/20 01:19:12;;;;;;;29.52;13.10;;;;;;;;;;5074605;28;20023;-74
2022/03/20 01:21:38;;;;;;;27.45;12.07;;;;;;;;;;5074505;28;20511;-75
2022/03/20 01:24:05;;;;;;;43.60;19.58;;;;;;;;;;5075340;28;20029;-75
2022/03/20 01:26:31;;;;;;;36.42;17.10;;;;;;;;;;5074246;28;20033;-75
2022/03/20 01:28:57;;;;;;;37.17;18.33;;;;;;;;;;5074238;28;20419;-75
2022/03/20 01:31:24;;;;;;;30.75;15.65;;;;;;;;;;5073930;28;20486;-74
2022/03/20 01:33:50;;;;;;;27.45;13.93;;;;;;;;;;5074376;28;20029;-74
2022/03/20 01:36:16;;;;;;;24.67;14.05;;;;;;;;;;5075162;28;20029;-75
2022/03/20 01:38:43;;;;;;;23.33;13.38;;;;;;;;;;5073772;28;20062;-74
2022/03/20 01:41:09;;;;;;;31.38;15.13;;;;;;;;;;5060723;28;20031;-74
2022/03/20 01:43:36;;;;;;;29.83;14.93;;;;;;;;;;5074387;28;20036;-74
2022/03/20 01:46:02;;;;;;;26.88;15.32;;;;;;;;;;5073774;28;20008;-75
2022/03/20 01:48:28;;;;;;;27.88;14.55;;;;;;;;;;5074237;28;20044;-75
2022/03/20 01:50:55;;;;;;;29.35;14.60;;;;;;;;;;5073327;28;20629;-74
2022/03/20 01:53:21;;;;;;;23.08;13.52;;;;;;;;;;5073867;28;20032;-74
2022/03/20 01:55:48;;;;;;;27.92;13.38;;;;;;;;;;5073845;28;20020;-74
2022/03/20 01:58:17;;;;;;;28.25;12.93;;;;;;;;;;5073784;28;20032;-74
2022/03/20 02:00:44;;;;;;;21.15;12.13;;;;;;;;;;5073328;28;20032;-74
2022/03/20 02:03:10;;;;;;;21.83;11.23;;;;;;;;;;5074331;28;20392;-75
2022/03/20 02:05:37;;;;;;;27.50;12.23;;;;;;;;;;5073593;28;20020;-74
2022/03/20 02:08:04;;;;;;;25.48;12.30;;;;;;;;;;5073537;28;20061;-74
2022/03/20 02:10:35;;;;;;;21.00;11.75;;;;;;;;;;5073545;28;20024;-74
2022/03/20 02:13:02;;;;;;;24.70;13.15;;;;;;;;;;5073602;28;20086;-74
2022/03/20 02:15:28;;;;;;;23.27;12.70;;;;;;;;;;5073323;28;20017;-74
2022/03/20 02:17:56;;;;;;;24.92;12.93;;;;;;;;;;5073123;28;20032;-75
2022/03/20 02:20:22;;;;;;;24.63;12.90;;;;;;;;;;5073412;28;20025;-74
2022/03/20 02:22:49;;;;;;;25.48;11.93;;;;;;;;;;5073290;28;20474;-74
2022/03/20 02:25:17;;;;;;;26.75;12.75;;;;;;;;;;5073348;28;20485;-75
2022/03/20 02:27:44;;;;;;;22.27;12.88;;;;;;;;;;5072632;28;20045;-74
2022/03/20 02:30:15;;;;;;;26.33;13.35;;;;;;;;;;5073919;28;20020;-74
2022/03/20 02:32:42;;;;;;;22.52;12.55;;;;;;;;;;5073025;28;20016;-74
2022/03/20 02:35:15;;;;;;;24.77;13.18;;;;;;;;;;5073416;28;20025;-74
2022/03/20 02:37:51;;;;;;;22.50;12.52;;;;;;;;;;5072856;28;20037;-74
2022/03/20 02:40:19;;;;;;;32.53;13.85;;;;;;;;;;5073013;28;20435;-74
2022/03/20 02:42:46;;;;;;;27.00;12.90;;;;;;;;;;5072841;28;20035;-74
2022/03/20 02:45:14;;;;;;;25.52;12.68;;;;;;;;;;5060190;28;20081;-74
2022/03/20 02:47:41;;;;;;;35.05;17.83;;;;;;;;;;5072838;28;20035;-74
2022/03/20 02:50:32;;;;;;;33.90;17.05;;;;;;;;;;5072670;28;20485;-74
2022/03/20 02:52:59;;;;;;;30.17;16.60;;;;;;;;;;5065455;28;20036;-74
2022/03/20 02:55:27;;;;;;;33.00;15.68;;;;;;;;;;5072884;28;20262;-74
2022/03/20 02:57:55;;;;;;;28.80;14.98;;;;;;;;;;5072589;28;20493;-74
2022/03/20 03:00:24;;;;;;;26.55;14.43;;;;;;;;;;5073169;28;20401;-74
2022/03/20 03:02:51;;;;;;;30.25;15.00;;;;;;;;;;5072574;28;20027;-74
2022/03/20 03:05:18;;;;;;;27.38;14.38;;;;;;;;;;5072637;28;20024;-74
2022/03/20 03:13:16;;;;;;;35.35;15.88;;;;;;;;;;5072067;28;20030;-74
2022/03/20 03:15:43;;;;;;;26.70;13.60;;;;;;;;;;5072336;28;20029;-74
2022/03/20 03:18:09;;;;;;;30.95;14.30;;;;;;;;;;5072827;28;20021;-74
2022/03/20 03:20:36;;;;;;;26.05;14.23;;;;;;;;;;5072120;28;20489;-74
2022/03/20 03:23:03;;;;;;;28.85;12.27;;;;;;;;;;5072521;28;20032;-74
2022/03/20 03:25:33;;;;;;;32.78;13.82;;;;;;;;;;5071989;28;20036;-74
2022/03/20 03:27:59;;;;;;;24.63;13.70;;;;;;;;;;5071501;28;20575;-74
2022/03/20 03:30:26;;;;;;;27.42;14.35;;;;;;;;;;5057909;28;20028;-74
2022/03/20 03:32:52;;;;;;;27.40;14.50;;;;;;;;;;5072414;28;20042;-74
2022/03/20 03:38:04;;;;;;;28.45;13.10;;;;;;;;;;5071054;28;20044;-74
2022/03/20 03:40:30;;;;;;;25.95;13.05;;;;;;;;;;5055520;28;20065;-74
2022/03/20 03:42:57;;;;;;;23.10;13.35;;;;;;;;;;5071874;28;20032;-74
2022/03/20 03:45:24;;;;;;;22.33;13.30;;;;;;;;;;5072069;28;20021;-74
2022/03/20 03:47:52;;;;;;;27.75;13.23;;;;;;;;;;5071867;28;20037;-74
2022/03/20 03:50:19;;;;;;;24.13;13.57;;;;;;;;;;5071461;28;20491;-74
2022/03/20 03:52:46;;;;;;;22.77;13.02;;;;;;;;;;5071915;28;20036;-74
2022/03/20 03:55:12;;;;;;;24.35;13.30;;;;;;;;;;5071383;28;20027;-74
2022/03/20 03:57:42;;;;;;;23.38;12.73;;;;;;;;;;5071648;28;20042;-74
2022/03/20 04:00:09;;;;;;;24.55;12.93;;;;;;;;;;5072452;28;20027;-74
2022/03/20 04:02:35;;;;;;;20.77;12.70;;;;;;;;;;5071447;28;20509;-74
2022/03/20 04:05:02;;;;;;;21.95;12.57;;;;;;;;;;5071419;28;20027;-74
2022/03/20 04:07:28;;;;;;;20.63;12.50;;;;;;;;;;5071479;28;20042;-74
2022/03/20 04:09:55;;;;;;;23.25;12.95;;;;;;;;;;5071117;28;20389;-74
2022/03/20 04:12:21;;;;;;;23.27;13.52;;;;;;;;;;5072177;28;20473;-74
2022/03/20 04:14:48;;;;;;;23.08;12.55;;;;;;;;;;5071627;28;20025;-74
2022/03/20 04:17:15;;;;;;;32.55;12.77;;;;;;;;;;5063489;28;20077;-74
2022/03/20 04:19:42;;;;;;;21.63;12.70;;;;;;;;;;5062490;28;20028;-74
2022/03/20 04:22:08;;;;;;;23.48;11.30;;;;;;;;;;5071148;28;20066;-74
2022/03/20 04:24:36;;;;;;;22.02;12.95;;;;;;;;;;5071107;28;20035;-74
2022/03/20 04:27:03;;;;;;;25.38;12.88;;;;;;;;;;5069923;28;20029;-74
2022/03/20 04:29:30;;;;;;;20.98;11.60;;;;;;;;;;5071108;28;20032;-74
2022/03/20 04:31:56;;;;;;;23.00;11.90;;;;;;;;;;5071133;28;20026;-74
2022/03/20 04:34:23;;;;;;;24.50;12.60;;;;;;;;;;5037644;28;20027;-74
2022/03/20 04:36:50;;;;;;;23.10;12.10;;;;;;;;;;5055245;28;20025;-74
2022/03/20 04:39:17;;;;;;;26.08;12.80;;;;;;;;;;5071055;28;20048;-74
2022/03/20 04:41:44;;;;;;;28.20;12.80;;;;;;;;;;5071079;28;20392;-74
2022/03/20 04:44:12;;;;;;;21.88;11.52;;;;;;;;;;5071166;28;20028;-74
2022/03/20 04:46:39;;;;;;;22.70;10.80;;;;;;;;;;5071206;28;20025;-74
2022/03/20 05:00:06;;;;;;;17.33;10.35;;;;;;;;;;5073995;28;20029;-74
2022/03/20 05:02:33;;;;;;;18.98;10.23;;;;;;;;;;5074911;28;20540;-74
2022/03/20 05:04:59;;;;;;;21.48;10.90;;;;;;;;;;5074756;28;20443;-74
2022/03/20 05:07:25;;;;;;;23.17;10.77;;;;;;;;;;5074454;28;20082;-74
2022/03/20 05:15:22;;;;;;;23.27;10.38;;;;;;;;;;5071291;28;20032;-74
2022/03/20 05:17:48;;;;;;;18.40;10.88;;;;;;;;;;5074968;28;20029;-74
2022/03/20 05:20:16;;;;;;;21.83;11.02;;;;;;;;;;5074653;28;20142;-74
2022/03/20 05:22:42;;;;;;;19.35;10.15;;;;;;;;;;5074079;28;20412;-74
2022/03/20 05:25:09;;;;;;;22.27;10.88;;;;;;;;;;5074701;28;20020;-74
2022/03/20 05:27:37;;;;;;;20.67;10.48;;;;;;;;;;5058178;28;20047;-74
2022/03/20 05:30:05;;;;;;;20.65;10.52;;;;;;;;;;5074920;28;20457;-74
2022/03/20 05:32:32;;;;;;;18.33;10.88;;;;;;;;;;5074473;28;20021;-74
2022/03/20 05:34:59;;;;;;;17.17;10.43;;;;;;;;;;5074395;28;20028;-74
2022/03/20 05:37:26;;;;;;;22.40;11.30;;;;;;;;;;5073644;28;20031;-74
2022/03/20 05:39:52;;;;;;;18.25;12.02;;;;;;;;;;5074508;28;20028;-74
2022/03/20 05:42:18;;;;;;;19.60;10.30;;;;;;;;;;5074893;28;20028;-74
2022/03/20 05:44:46;;;;;;;16.30;10.43;;;;;;;;;;5074239;28;20013;-74
2022/03/20 05:47:12;;;;;;;22.30;11.23;;;;;;;;;;5073934;28;20044;-74
2022/03/20 05:49:39;;;;;;;17.70;10.95;;;;;;;;;;5073939;28;20013;-74
2022/03/20 05:52:06;;;;;;;21.75;10.75;;;;;;;;;;5073472;28;20404;-74
2022/03/20 05:54:33;;;;;;;18.88;10.77;;;;;;;;;;5074058;28;20029;-74
2022/03/20 05:59:44;;;;;;;24.73;11.75;;;;;;;;;;5073856;28;20013;-74
2022/03/20 06:02:11;;;;;;;18.67;10.88;;;;;;;;;;5073308;28;20031;-75
2022/03/20 06:04:38;;;;;;;23.42;11.63;;;;;;;;;;5073577;28;20027;-75
2022/03/20 06:07:05;;;;;;;21.20;10.77;;;;;;;;;;5073316;28;20031;-74
2022/03/20 06:09:31;;;;;;;23.77;11.90;;;;;;;;;;5074039;28;20025;-74
2022/03/20 06:11:58;;;;;;;24.42;11.43;;;;;;;;;;5068416;28;20378;-73
2022/03/20 06:14:24;;;;;;;20.02;11.10;;;;;;;;;;5073432;28;20025;-74
2022/03/20 06:16:51;;;;;;;21.30;11.20;;;;;;;;;;5073460;28;20024;-75
2022/03/20 06:19:18;;;;;;;21.58;10.77;;;;;;;;;;5073696;28;20024;-75
2022/03/20 06:21:46;;;;;;;22.85;11.88;;;;;;;;;;5072993;28;20024;-75
2022/03/20 06:24:12;;;;;;;24.42;11.70;;;;;;;;;;5073924;28;20439;-75
2022/03/20 06:26:39;;;;;;;28.27;12.23;;;;;;;;;;5073246;28;20482;-74
2022/03/20 06:29:06;;;;;;;29.15;12.18;;;;;;;;;;5073287;28;20026;-74
2022/03/20 06:31:32;;;;;;;22.77;11.35;;;;;;;;;;5073152;28;20025;-74
2022/03/20 06:34:00;;;;;;;23.23;11.88;;;;;;;;;;5073033;28;20085;-75
2022/03/20 06:36:27;;;;;;;24.63;11.52;;;;;;;;;;5073039;28;20417;-75
2022/03/20 06:38:54;;;;;;;20.27;11.13;;;;;;;;;;5073346;28;20059;-75
2022/03/20 06:41:20;;;;;;;23.23;12.10;;;;;;;;;;5073002;28;20501;-75
2022/03/20 06:43:47;;;;;;;22.05;11.45;;;;;;;;;;5072965;28;20058;-75
2022/03/20 06:46:13;;;;;;;21.70;11.25;;;;;;;;;;5073037;28;20406;-75
2022/03/20 06:48:40;;;;;;;23.88;11.55;;;;;;;;;;5072477;28;20039;-74
2022/03/20 06:51:06;;;;;;;19.17;10.60;;;;;;;;;;5073478;28;20500;-75
2022/03/20 06:53:33;;;;;;;21.77;11.40;;;;;;;;;;5072781;28;20027;-75
2022/03/20 06:56:00;;;;;;;27.85;11.40;;;;;;;;;;5072943;28;20031;-75
2022/03/20 06:58:28;;;;;;;19.88;10.55;;;;;;;;;;5072778;28;20020;-75
2022/03/20 07:00:54;;;;;;;20.35;11.48;;;;;;;;;;5072886;28;20017;-75
2022/03/20 07:03:21;;;;;;;20.98;11.45;;;;;;;;;;5072888;28;20033;-75
2022/03/20 07:05:47;;;;;;;20.15;10.07;;;;;;;;;;5072734;28;20017;-75
2022/03/20 07:08:14;;;;;;;27.77;10.63;;;;;;;;;;5072442;28;20550;-75
2022/03/20 07:10:42;;;;;;;28.75;10.60;;;;;;;;;;5072475;28;20024;-75
2022/03/20 07:15:57;;;;;;;22.73;10.82;;;;;;;;;;5056846;28;20019;-75
2022/03/20 07:18:24;;;;;;;24.77;11.35;;;;;;;;;;5058124;28;20036;-75
2022/03/20 07:20:51;;;;;;;19.35;10.77;;;;;;;;;;5072153;28;20459;-75
2022/03/20 07:23:17;;;;;;;18.63;11.13;;;;;;;;;;5072194;28;20016;-75
2022/03/20 07:31:15;;;;;;;16.60;10.38;;;;;;;;;;5072193;28;20035;-75
2022/03/20 07:33:41;;;;;;;21.08;10.88;;;;;;;;;;5071788;28;20033;-75
2022/03/20 07:36:08;;;;;;;16.40;10.00;;;;;;;;;;5072607;28;20039;-75
2022/03/20 07:38:37;;;;;;;22.00;11.15;;;;;;;;;;5071728;28;20569;-75
2022/03/20 07:41:04;;;;;;;18.80;10.30;;;;;;;;;;5071786;28;20027;-75
2022/03/20 07:43:30;;;;;;;20.05;10.80;;;;;;;;;;5071755;28;20024;-75
2022/03/20 07:45:57;;;;;;;17.10;9.38;;;;;;;;;;5072207;28;20090;-76
2022/03/20 07:48:23;;;;;;;17.05;10.20;;;;;;;;;;5071773;28;20043;-75
2022/03/20 07:50:53;;;;;;;18.50;10.15;;;;;;;;;;5071888;28;20033;-75
2022/03/20 07:53:19;;;;;;;17.67;10.02;;;;;;;;;;5071599;28;20384;-75
2022/03/20 07:55:46;;;;;;;19.40;9.48;;;;;;;;;;5071607;28;20036;-75
2022/03/20 07:58:13;;;;;;;17.48;9.75;;;;;;;;;;5071565;28;20493;-75
2022/03/20 08:00:40;;;;;;;17.67;9.90;;;;;;;;;;5055351;28;20035;-75
2022/03/20 08:03:06;;;;;;;14.73;9.30;;;;;;;;;;5071860;28;20038;-75
2022/03/20 08:05:33;;;;;;;14.73;9.75;;;;;;;;;;5071278;28;20028;-75
2022/03/20 08:08:02;;;;;;;12.65;8.77;;;;;;;;;;5071322;28;20535;-75
2022/03/20 08:10:29;;;;;;;19.35;10.50;;;;;;;;;;5071513;28;20416;-75
2022/03/20 08:12:55;;;;;;;15.20;10.00;;;;;;;;;;5071488;28;20028;-75
2022/03/20 08:15:23;;;;;;;16.52;9.60;;;;;;;;;;5072004;28;20023;-75
2022/03/20 08:17:50;;;;;;;16.17;9.07;;;;;;;;;;5071302;28;20662;-75
2022/03/20 08:20:16;;;;;;;17.20;9.52;;;;;;;;;;5071485;28;20042;-75
2022/03/20 08:22:42;;;;;;;17.85;9.50;;;;;;;;;;5071256;28;20439;-75
2022/03/20 08:25:10;;;;;;;13.52;8.85;;;;;;;;;;5053455;28;20039;-75
2022/03/20 08:27:46;;;;;;;12.88;8.52;;;;;;;;;;5071228;28;20405;-75
2022/03/20 08:30:16;;;;;;;12.20;8.77;;;;;;;;;;5070660;28;20020;-74
2022/03/20 08:32:42;;;;;;;16.38;8.90;;;;;;;;;;5071153;28;20016;-75
2022/03/20 08:35:13;;;;;;;16.45;9.20;;;;;;;;;;5071175;28;20512;-75
2022/03/20 08:37:44;;;;;;;14.75;8.30;;;;;;;;;;5071141;28;20040;-75
2022/03/20 08:40:15;;;;;;;13.15;7.90;;;;;;;;;;5071045;28;20494;-75
2022/03/20 08:43:09;;;;;;;12.80;8.00;;;;;;;;;;5070999;28;20042;-75
2022/03/20 08:45:36;;;;;;;17.77;8.45;;;;;;;;;;5066351;28;20046;-75
2022/03/20 08:48:02;;;;;;;15.02;7.57;;;;;;;;;;5071619;28;20041;-75
2022/03/20 08:50:29;;;;;;;11.13;7.03;;;;;;;;;;5071132;28;20094;-75
2022/03/20 08:52:55;;;;;;;9.52;6.35;;;;;;;;;;5070988;28;20021;-75
2022/03/20 08:55:22;;;;;;;8.73;4.55;;;;;;;;;;5070957;28;20514;-75
2022/03/20 08:57:48;;;;;;;10.00;5.90;;;;;;;;;;5071070;28;20089;-75
2022/03/20 09:00:16;;;;;;;6.95;4.63;;;;;;;;;;5071291;28;20027;-75
2022/03/20 09:02:43;;;;;;;5.13;3.75;;;;;;;;;;5070929;28;20024;-75
2022/03/20 09:05:11;;;;;;;5.35;3.85;;;;;;;;;;5070910;28;20392;-75
2022/03/20 09:07:41;;;;;;;9.43;2.90;;;;;;;;;;5070705;28;20044;-75
2022/03/20 09:10:08;;;;;;;3.08;2.10;;;;;;;;;;5070919;28;20015;-75
2022/03/20 09:12:35;;;;;;;4.35;2.35;;;;;;;;;;5071287;28;20021;-75
2022/03/20 09:15:03;;;;;;;2.47;2.00;;;;;;;;;;5057534;28;20552;-75
2022/03/20 09:20:16;;;;;;;4.53;2.35;;;;;;;;;;5070531;28;20037;-76
2022/03/20 09:22:43;;;;;;;3.10;2.20;;;;;;;;;;5070689;28;20489;-75
2022/03/20 09:25:10;;;;;;;2.28;2.05;;;;;;;;;;5071068;28;20026;-75
2022/03/20 09:27:37;;;;;;;2.80;2.22;;;;;;;;;;5070685;28;20040;-75
2022/03/20 09:30:04;;;;;;;2.50;2.30;;;;;;;;;;5068848;28;20025;-76
2022/03/20 09:32:30;;;;;;;4.63;1.90;;;;;;;;;;5070613;28;20020;-75
2022/03/20 09:34:56;;;;;;;6.00;2.80;;;;;;;;;;5070480;28;20412;-76
2022/03/20 09:37:23;;;;;;;4.38;2.90;;;;;;;;;;5073371;28;20028;-76
2022/03/20 09:39:49;;;;;;;4.25;2.88;;;;;;;;;;5074300;28;20370;-76
2022/03/20 09:42:18;;;;;;;4.90;3.53;;;;;;;;;;5074826;28;20500;-76
2022/03/20 09:44:45;;;;;;;6.72;4.30;;;;;;;;;;5073664;28;20058;-76
2022/03/20 09:47:12;;;;;;;5.95;3.75;;;;;;;;;;5060497;28;20054;-75
2022/03/20 09:49:39;;;;;;;4.80;3.80;;;;;;;;;;5074299;28;20024;-75
2022/03/20 09:52:06;;;;;;;6.97;4.00;;;;;;;;;;5073900;28;20021;-75
2022/03/20 09:54:33;;;;;;;5.30;3.97;;;;;;;;;;5074106;28;20447;-76
2022/03/20 09:57:02;;;;;;;5.43;4.07;;;;;;;;;;5084505;28;20030;-76
2022/03/20 09:59:28;;;;;;;6.75;4.72;;;;;;;;;;5082405;28;20012;-76
2022/03/20 10:01:54;;;;;;;12.38;5.43;;;;;;;;;;5081445;28;20405;-75
2022/03/20 10:04:21;;;;;;;7.15;5.00;;;;;;;;;;5073823;28;20400;-76
2022/03/20 10:06:47;;;;;;;8.73;4.93;;;;;;;;;;5073849;28;20016;-75
2022/03/20 10:09:15;;;;;;;7.68;4.60;;;;;;;;;;5074293;28;20036;-76
2022/03/20 10:11:49;;;;;;;18.20;4.07;;;;;;;;;;5073411;28;20012;-75
2022/03/20 10:14:17;;;;;;;6.10;4.03;;;;;;;;;;5073747;28;20085;-75
2022/03/20 10:16:45;;;;;;;5.78;4.03;;;;;;;;;;5073495;28;20020;-76
2022/03/20 10:19:23;;;;;;;6.65;4.95;;;;;;;;;;5073546;28;20027;-75
2022/03/20 10:21:58;;;;;;;14.50;6.00;;;;;;;;;;5055968;28;20478;-75
2022/03/20 10:24:25;;;;;;;9.15;6.15;;;;;;;;;;5070172;28;20025;-76
2022/03/20 10:27:13;;;;;;;8.57;5.88;;;;;;;;;;5072855;28;20035;-76
2022/03/20 10:29:57;;;;;;;10.45;6.07;;;;;;;;;;5073244;28;20497;-76
2022/03/20 10:32:25;;;;;;;11.15;6.18;;;;;;;;;;5073170;28;20019;-76
2022/03/20 10:34:51;;;;;;;10.32;6.53;;;;;;;;;;5073198;28;20374;-76
2022/03/20 10:37:18;;;;;;;10.85;6.35;;;;;;;;;;5073107;28;20401;-76
2022/03/20 10:39:44;;;;;;;10.02;5.85;;;;;;;;;;5073121;28;20038;-76
2022/03/20 10:42:15;;;;;;;9.63;6.22;;;;;;;;;;5073345;28;20013;-76
2022/03/20 10:44:42;;;;;;;9.68;6.55;;;;;;;;;;5072882;28;20027;-76
2022/03/20 10:47:14;;;;;;;12.65;6.82;;;;;;;;;;5072943;28;20029;-76
2022/03/20 10:49:42;;;;;;;10.20;6.45;;;;;;;;;;5072816;28;20040;-76
2022/03/20 10:52:13;;;;;;;10.18;6.18;;;;;;;;;;5072957;28;20021;-76
2022/03/20 10:54:41;;;;;;;11.25;6.32;;;;;;;;;;5072826;28;20050;-76
2022/03/20 10:57:08;;;;;;;10.27;6.63;;;;;;;;;;5073162;28;20027;-76
2022/03/20 10:59:35;;;;;;;12.40;6.68;;;;;;;;;;5072692;28;20024;-76
2022/03/20 11:02:02;;;;;;;13.98;6.00;;;;;;;;;;5072521;28;20377;-76
2022/03/20 11:04:28;;;;;;;10.63;5.95;;;;;;;;;;5072656;28;20021;-76
2022/03/20 11:06:57;;;;;;;10.27;6.10;;;;;;;;;;5072647;28;20504;-76
2022/03/20 11:09:23;;;;;;;13.23;6.50;;;;;;;;;;5072942;28;20036;-75
2022/03/20 11:11:51;;;;;;;10.90;6.72;;;;;;;;;;5072397;28;20077;-75
2022/03/20 11:14:19;;;;;;;13.43;7.15;;;;;;;;;;5072486;28;20020;-75
2022/03/20 11:17:01;;;;;;;15.00;5.88;;;;;;;;;;5072293;28;20497;-76
2022/03/20 11:19:29;;;;;;;12.52;6.80;;;;;;;;;;5072166;28;20025;-76
2022/03/20 11:21:56;;;;;;;9.40;6.30;;;;;;;;;;5072354;28;20083;-76
2022/03/20 11:24:23;;;;;;;14.00;6.70;;;;;;;;;;5072837;28;20029;-76
2022/03/20 11:26:51;;;;;;;9.27;6.03;;;;;;;;;;5072431;28;20016;-76
2022/03/20 11:29:19;;;;;;;10.00;5.70;;;;;;;;;;5072019;28;20497;-75
2022/03/20 11:31:46;;;;;;;9.45;5.82;;;;;;;;;;5072065;28;20031;-76
2022/03/20 11:34:12;;;;;;;9.07;5.15;;;;;;;;;;5072055;28;20069;-75
2022/03/20 11:36:57;;;;;;;10.35;5.60;;;;;;;;;;5071923;28;20401;-76
2022/03/20 11:39:23;;;;;;;8.35;5.28;;;;;;;;;;5068454;28;20043;-76
2022/03/20 11:42:10;;;;;;;7.22;4.65;;;;;;;;;;5072203;28;20028;-76
2022/03/20 11:44:36;;;;;;;7.95;4.82;;;;;;;;;;5072045;28;20042;-76
2022/03/20 11:47:18;;;;;;;10.27;5.55;;;;;;;;;;5071596;28;20036;-76
2022/03/20 11:50:05;;;;;;;9.73;4.90;;;;;;;;;;5071741;28;20052;-76
2022/03/20 11:52:50;;;;;;;8.55;5.07;;;;;;;;;;5071647;28;20033;-76
2022/03/20 11:55:32;;;;;;;8.02;4.35;;;;;;;;;;5071256;28;20559;-76
2022/03/20 11:58:00;;;;;;;5.80;4.13;;;;;;;;;;5056886;28;20033;-76
2022/03/20 12:00:27;;;;;;;6.97;4.20;;;;;;;;;;5071488;28;20034;-76
2022/03/20 12:02:56;;;;;;;9.98;4.85;;;;;;;;;;5071764;28;20493;-76
2022/03/20 12:05:35;;;;;;;10.27;4.60;;;;;;;;;;5058039;28;20025;-76
2022/03/20 12:08:17;;;;;;;5.75;3.83;;;;;;;;;;5070944;28;20037;-76
2022/03/20 12:10:49;;;;;;;8.02;4.45;;;;;;;;;;5056807;28;20015;-76
2022/03/20 12:13:22;;;;;;;6.85;4.00;;;;;;;;;;5071414;28;20033;-76
2022/03/20 12:15:48;;;;;;;6.15;4.35;;;;;;;;;;5071464;28;20034;-76
2022/03/20 12:18:14;;;;;;;8.95;3.97;;;;;;;;;;5071969;28;20658;-76
2022/03/20 12:20:55;;;;;;;7.53;4.47;;;;;;;;;;5071221;28;20114;-76
2022/03/20 12:23:33;;;;;;;5.72;3.90;;;;;;;;;;5070846;28;20405;-77
2022/03/20 12:26:36;;;;;;;8.07;4.07;;;;;;;;;;5071404;28;20021;-76
2022/03/20 12:29:28;;;;;;;7.15;4.13;;;;;;;;;;5014248;28;20034;-76
2022/03/20 12:32:02;;;;;;;9.15;4.47;;;;;;;;;;5017318;28;20075;-76
2022/03/20 12:34:30;;;;;;;6.32;4.15;;;;;;;;;;5020699;28;20026;-76
2022/03/20 12:37:17;;;;;;;9.95;4.47;;;;;;;;;;5024204;28;20046;-75
2022/03/20 12:39:54;;;;;;;5.82;4.50;;;;;;;;;;5025410;28;20037;-76
2022/03/20 12:42:22;;;;;;;8.70;4.85;;;;;;;;;;5025699;28;20033;-76
2022/03/20 12:44:49;;;;;;;8.02;6.05;;;;;;;;;;5013761;28;20034;-76
2022/03/20 12:47:19;;;;;;;8.63;5.15;;;;;;;;;;5013645;28;20040;-76
2022/03/20 12:49:52;;;;;;;9.77;5.65;;;;;;;;;;5013619;28;20040;-75
2022/03/20 12:52:19;;;;;;;11.27;6.30;;;;;;;;;;5012189;28;20029;-75
2022/03/20 12:54:56;;;;;;;9.65;6.28;;;;;;;;;;5010032;28;20030;-76
2022/03/20 12:57:41;;;;;;;9.55;6.05;;;;;;;;;;5021356;28;20033;-76
2022/03/20 13:00:10;;;;;;;10.32;6.25;;;;;;;;;;5014055;28;20437;-76
2022/03/20 13:02:56;;;;;;;10.27;6.80;;;;;;;;;;5027982;28;20039;-76
2022/03/20 13:05:22;;;;;;;11.15;6.38;;;;;;;;;;5067567;28;20023;-76
2022/03/20 13:07:49;;;;;;;13.18;6.88;;;;;;;;;;5070745;28;20032;-76
2022/03/20 13:10:16;;;;;;;10.77;6.72;;;;;;;;;;5071098;28;20033;-76
2022/03/20 13:12:50;;;;;;;9.65;6.10;;;;;;;;;;5074567;28;20447;-76
2022/03/20 13:15:27;;;;;;;16.02;7.00;;;;;;;;;;5075412;28;20030;-75
2022/03/20 13:17:54;;;;;;;15.00;6.30;;;;;;;;;;5075010;28;20021;-75
2022/03/20 13:20:22;;;;;;;9.73;6.95;;;;;;;;;;5068740;28;20024;-75
2022/03/20 13:22:48;;;;;;;10.48;7.35;;;;;;;;;;5061106;28;20020;-76
2022/03/20 13:25:16;;;;;;;14.05;7.43;;;;;;;;;;5074537;28;20046;-75
2022/03/20 13:27:43;;;;;;;13.55;7.38;;;;;;;;;;5074468;28;20410;-76
2022/03/20 13:30:10;;;;;;;13.05;7.25;;;;;;;;;;5075278;28;20025;-76
2022/03/20 13:32:36;;;;;;;10.90;6.90;;;;;;;;;;5074376;28;20043;-76
2022/03/20 13:35:02;;;;;;;10.80;6.72;;;;;;;;;;5060580;28;20024;-76
2022/03/20 13:37:29;;;;;;;13.40;7.13;;;;;;;;;;5074286;28;20039;-76
2022/03/20 13:39:57;;;;;;;13.88;7.22;;;;;;;;;;5074146;28;20505;-76
2022/03/20 13:42:25;;;;;;;14.73;7.50;;;;;;;;;;5075181;28;20021;-76
2022/03/20 13:44:53;;;;;;;9.00;6.35;;;;;;;;;;5074001;28;20367;-76
2022/03/20 13:47:19;;;;;;;11.82;6.78;;;;;;;;;;5074255;28;20029;-75
2022/03/20 13:49:46;;;;;;;12.00;6.57;;;;;;;;;;5073804;28;20033;-76
2022/03/20 13:55:01;;;;;;;12.80;7.25;;;;;;;;;;5073855;28;20516;-75
2022/03/20 13:57:28;;;;;;;13.40;8.57;;;;;;;;;;5071031;28;20032;-76
2022/03/20 13:59:56;;;;;;;14.88;7.22;;;;;;;;;;5074189;28;20031;-76
2022/03/20 14:02:24;;;;;;;13.20;6.88;;;;;;;;;;5073920;28;20017;-76
2022/03/20 14:04:52;;;;;;;10.73;5.97;;;;;;;;;;5073210;28;20039;-75
2022/03/20 14:07:20;;;;;;;13.43;6.93;;;;;;;;;;5073878;28;20031;-76
2022/03/20 14:09:46;;;;;;;11.50;6.00;;;;;;;;;;5074041;28;20031;-76
2022/03/20 14:12:22;;;;;;;12.20;5.80;;;;;;;;;;5074373;28;20027;-76
2022/03/20 14:14:51;;;;;;;9.07;6.20;;;;;;;;;;5073530;28;20028;-76
2022/03/20 14:17:38;;;;;;;10.95;6.35;;;;;;;;;;5073524;28;20085;-76
2022/03/20 14:20:08;;;;;;;9.43;5.63;;;;;;;;;;5072966;28;20017;-76
2022/03/20 14:22:44;;;;;;;10.48;4.90;;;;;;;;;;5073305;28;20025;-76
2022/03/20 14:25:12;;;;;;;9.73;4.95;;;;;;;;;;5073493;28;20055;-76
2022/03/20 14:27:39;;;;;;;7.90;5.22;;;;;;;;;;5073633;28;20033;-76
2022/03/20 14:41:28;;;;;;;12.50;4.10;;;;;;;;;;5073143;28;20947;-75
2022/03/20 14:44:13;;;;;;;7.47;4.20;;;;;;;;;;5073128;28;20020;-76
2022/03/20 14:46:39;;;;;;;7.28;4.50;;;;;;;;;;5072887;28;20027;-75
2022/03/20 14:49:07;;;;;;;6.53;3.70;;;;;;;;;;5072743;28;20028;-76
2022/03/20 14:51:34;;;;;;;8.38;4.05;;;;;;;;;;5073072;28;20477;-75
2022/03/20 14:54:00;;;;;;;7.65;3.60;;;;;;;;;;5073300;28;20025;-75
2022/03/20 14:56:27;;;;;;;5.90;2.80;;;;;;;;;;5059326;28;20378;-75
2022/03/20 14:58:57;;;;;;;5.38;3.47;;;;;;;;;;5072682;28;20505;-75
2022/03/20 15:01:23;;;;;;;5.20;3.63;;;;;;;;;;5072710;28;20396;-75
2022/03/20 15:03:50;;;;;;;3.88;2.65;;;;;;;;;;5072498;28;20024;-75
2022/03/20 15:06:16;;;;;;;4.28;2.92;;;;;;;;;;5073294;28;20637;-75
2022/03/20 15:11:28;;;;;;;3.88;2.53;;;;;;;;;;5072433;28;20019;-75
2022/03/20 15:13:55;;;;;;;7.47;2.92;;;;;;;;;;5072758;28;20017;-76
2022/03/20 15:16:22;;;;;;;6.05;3.38;;;;;;;;;;5072137;28;20024;-75
2022/03/20 15:18:51;;;;;;;5.03;2.70;;;;;;;;;;5072421;28;20397;-76
2022/03/20 15:21:17;;;;;;;8.25;3.80;;;;;;;;;;5072947;28;20157;-76
2022/03/20 15:23:44;;;;;;;6.80;2.78;;;;;;;;;;5072272;28;20031;-75
2022/03/20 15:26:11;;;;;;;5.22;3.22;;;;;;;;;;5072175;28;20031;-75
2022/03/20 15:28:37;;;;;;;7.28;3.42;;;;;;;;;;5071956;28;20434;-74